Time;durP1;ratioP1;P1;durP2;ratioP2;P2;SDS_P1;SDS_P2;PMS_P1;PMS_P2;Temp;Humidity;BMP_temperature;BMP_pressure;BME280_temperature;BME280_humidity;BME280_pressure;Samples;Min_cycle;Max_cycle;Signal;HPM_P1;HPM_P2
2021/12/07 00:02:06;;;;;;;4.05;3.40;;;19.70;47.20;;;;;;2261935;63;20181;-65
2021/12/07 00:04:33;;;;;;;4.28;2.90;;;19.60;47.10;;;;;;2261932;63;20294;-66
2021/12/07 00:07:00;;;;;;;3.85;3.15;;;19.60;47.10;;;;;;2254586;63;20681;-65
2021/12/07 00:09:26;;;;;;;4.45;3.33;;;19.60;47.10;;;;;;2261967;63;20252;-65
2021/12/07 00:11:53;;;;;;;4.00;2.92;;;19.60;47.10;;;;;;2263277;63;20655;-65
2021/12/07 00:14:24;;;;;;;3.53;3.17;;;19.60;47.10;;;;;;2263277;63;20160;-65
2021/12/07 00:16:53;;;;;;;3.50;2.95;;;19.60;47.10;;;;;;2263239;63;20211;-65
2021/12/07 00:19:19;;;;;;;3.47;3.03;;;19.60;47.10;;;;;;2263242;63;20180;-66
2021/12/07 00:21:46;;;;;;;4.18;3.10;;;19.60;47.20;;;;;;2263229;63;20209;-65
2021/12/07 00:24:13;;;;;;;4.75;3.30;;;19.50;47.10;;;;;;2263081;63;20238;-65
2021/12/07 00:26:42;;;;;;;3.92;3.35;;;19.50;47.10;;;;;;2263159;63;20181;-65
2021/12/07 00:29:09;;;;;;;4.43;2.97;;;19.50;47.20;;;;;;2263140;63;20598;-65
2021/12/07 00:31:41;;;;;;;3.55;3.10;;;19.50;47.10;;;;;;2263131;63;20195;-65
2021/12/07 00:34:44;;;;;;;3.75;2.60;;;19.50;47.20;;;;;;2263101;63;20302;-65
2021/12/07 00:37:10;;;;;;;4.63;2.92;;;19.50;47.20;;;;;;2263127;63;20168;-65
2021/12/07 00:39:36;;;;;;;3.78;3.00;;;19.40;47.20;;;;;;2263042;63;20285;-66
2021/12/07 00:42:02;;;;;;;3.70;2.90;;;19.40;47.10;;;;;;2263123;63;20307;-65
2021/12/07 00:44:29;;;;;;;3.42;2.80;;;19.40;47.10;;;;;;2262945;63;20168;-65
2021/12/07 00:46:55;;;;;;;3.08;2.75;;;19.40;47.10;;;;;;2263057;63;20256;-65
2021/12/07 00:49:22;;;;;;;3.50;3.05;;;19.40;47.10;;;;;;2263085;63;20245;-65
2021/12/07 00:51:48;;;;;;;4.05;3.05;;;19.40;47.10;;;;;;2263030;63;20242;-65
2021/12/07 00:54:15;;;;;;;3.78;3.10;;;19.40;47.10;;;;;;2263001;63;20182;-65
2021/12/07 00:56:41;;;;;;;4.35;2.90;;;19.40;47.10;;;;;;2263007;63;20228;-65
2021/12/07 00:59:08;;;;;;;3.60;3.10;;;19.40;47.10;;;;;;2263059;63;20428;-65
2021/12/07 01:01:35;;;;;;;3.50;2.90;;;19.40;47.10;;;;;;2263005;63;20766;-66
2021/12/07 01:04:01;;;;;;;4.13;3.50;;;19.40;47.00;;;;;;2262931;63;20207;-65
2021/12/07 01:06:32;;;;;;;3.00;2.67;;;19.30;47.00;;;;;;2263020;63;20592;-66
2021/12/07 01:25:25;;;;;;;3.22;2.80;;;19.30;47.00;;;;;;2250187;63;20184;-65
2021/12/07 01:27:52;;;;;;;4.40;4.00;;;19.30;47.00;;;;;;2262828;63;20661;-65
2021/12/07 01:30:35;;;;;;;3.33;2.88;;;19.10;46.90;;;;;;2262813;63;20217;-65
2021/12/07 01:36:07;;;;;;;3.80;2.90;;;19.30;47.00;;;;;;2262777;63;20182;-65
2021/12/07 01:39:30;;;;;;;3.25;2.67;;;19.20;47.00;;;;;;2262664;63;20156;-65
2021/12/07 01:52:47;;;;;;;3.13;2.60;;;19.20;47.00;;;;;;2262652;63;20190;-66
2021/12/07 02:00:34;;;;;;;3.38;2.95;;;19.10;46.90;;;;;;2262665;63;20242;-66
2021/12/07 02:03:00;;;;;;;4.18;2.88;;;19.10;46.90;;;;;;2262611;63;20180;-66
2021/12/07 02:05:27;;;;;;;3.53;3.05;;;19.10;46.90;;;;;;2262546;63;20224;-66
2021/12/07 02:07:53;;;;;;;2.90;2.63;;;19.10;46.90;;;;;;2262546;63;20175;-66
2021/12/07 02:10:23;;;;;;;3.65;2.92;;;19.10;46.90;;;;;;2262525;63;20148;-65
2021/12/07 02:12:52;;;;;;;3.33;2.75;;;19.10;46.90;;;;;;2262600;63;20281;-66
2021/12/07 02:15:25;;;;;;;2.83;2.53;;;19.10;46.90;;;;;;2262604;63;20152;-66
2021/12/07 02:17:52;;;;;;;2.83;2.53;;;19.10;46.90;;;;;;2262563;63;20203;-66
2021/12/07 02:20:19;;;;;;;3.13;2.83;;;19.10;46.90;;;;;;2262552;63;20164;-66
2021/12/07 02:22:46;;;;;;;3.50;2.90;;;19.10;46.90;;;;;;2262535;63;20651;-66
2021/12/07 02:25:15;;;;;;;2.90;2.60;;;19.00;46.80;;;;;;2262463;63;20340;-66
2021/12/07 02:27:41;;;;;;;3.40;2.50;;;19.10;46.90;;;;;;2262533;63;20317;-66
2021/12/07 02:30:11;;;;;;;3.20;2.65;;;19.10;46.90;;;;;;2262502;63;20255;-66
2021/12/07 02:32:38;;;;;;;2.95;2.63;;;19.10;46.90;;;;;;2262349;63;20192;-66
2021/12/07 02:35:05;;;;;;;2.88;2.50;;;19.10;46.90;;;;;;2262513;63;20305;-66
2021/12/07 02:37:33;;;;;;;2.95;2.65;;;19.10;46.80;;;;;;2262430;63;20307;-65
2021/12/07 02:40:00;;;;;;;2.58;2.33;;;19.00;47.40;;;;;;2262362;63;20172;-66
2021/12/07 02:42:27;;;;;;;3.10;2.80;;;19.10;46.80;;;;;;2262442;63;20582;-66
2021/12/07 02:44:54;;;;;;;2.38;2.15;;;19.10;46.80;;;;;;2262305;63;20545;-66
2021/12/07 02:47:20;;;;;;;3.15;2.67;;;19.00;46.80;;;;;;2262454;63;20185;-65
2021/12/07 02:49:46;;;;;;;3.33;2.72;;;19.00;46.70;;;;;;2262358;63;20721;-66
2021/12/07 02:52:13;;;;;;;2.92;2.65;;;19.00;46.70;;;;;;2262370;63;20586;-66
2021/12/07 02:54:44;;;;;;;2.40;2.20;;;19.00;46.70;;;;;;2262317;63;20164;-66
2021/12/07 02:57:15;;;;;;;3.05;2.55;;;19.00;46.70;;;;;;2262402;63;20164;-66
2021/12/07 02:59:49;;;;;;;3.95;2.80;;;19.00;46.70;;;;;;2262349;63;20748;-65
2021/12/07 03:02:18;;;;;;;4.53;2.92;;;19.00;46.70;;;;;;2262380;63;20181;-66
2021/12/07 03:04:57;;;;;;;3.03;2.72;;;19.00;46.70;;;;;;2262223;63;20179;-66
2021/12/07 03:07:45;;;;;;;2.70;2.30;;;19.00;46.70;;;;;;2262315;63;20215;-66
2021/12/07 03:26:26;;;;;;;2.95;2.70;;;18.90;46.60;;;;;;2262248;63;20175;-65
2021/12/07 03:28:54;;;;;;;3.35;2.60;;;18.90;46.60;;;;;;2262171;63;20347;-65
2021/12/07 03:31:20;;;;;;;3.47;2.60;;;18.90;46.60;;;;;;2262160;63;20164;-66
2021/12/07 03:33:48;;;;;;;2.25;2.05;;;18.90;46.50;;;;;;2262128;63;20281;-65
2021/12/07 03:36:15;;;;;;;2.95;2.25;;;18.90;46.50;;;;;;2262166;63;20205;-65
2021/12/07 03:38:41;;;;;;;3.05;2.70;;;18.90;46.50;;;;;;2262096;63;20192;-66
2021/12/07 03:41:08;;;;;;;2.40;2.20;;;18.90;46.50;;;;;;2262058;63;20195;-66
2021/12/07 03:43:38;;;;;;;2.83;2.40;;;18.90;46.50;;;;;;2261903;63;20168;-65
2021/12/07 03:46:04;;;;;;;2.92;2.50;;;19.00;46.60;;;;;;2261735;63;20330;-65
2021/12/07 03:48:30;;;;;;;2.72;2.42;;;18.90;46.50;;;;;;2262017;63;20599;-66
2021/12/07 03:50:56;;;;;;;3.30;2.75;;;18.90;46.50;;;;;;2261989;63;20180;-65
2021/12/07 03:53:22;;;;;;;3.08;2.40;;;18.90;46.50;;;;;;2261991;63;20211;-65
2021/12/07 03:55:48;;;;;;;2.83;2.40;;;18.90;46.50;;;;;;2261963;63;20167;-65
2021/12/07 03:58:14;;;;;;;2.70;2.30;;;18.90;46.40;;;;;;2261969;63;20169;-66
2021/12/07 04:00:44;;;;;;;2.67;2.17;;;18.90;46.40;;;;;;2261971;63;20323;-65
2021/12/07 04:03:14;;;;;;;2.35;2.10;;;18.90;46.40;;;;;;2261931;63;20230;-65
2021/12/07 04:05:45;;;;;;;3.08;2.78;;;18.90;46.40;;;;;;2261938;63;20189;-65
2021/12/07 04:08:13;;;;;;;2.85;2.40;;;18.90;46.40;;;;;;2261841;63;20190;-65
2021/12/07 04:10:39;;;;;;;2.78;2.40;;;18.90;46.40;;;;;;2261892;63;20262;-66
2021/12/07 04:13:05;;;;;;;2.90;2.30;;;18.90;46.40;;;;;;2261885;63;20180;-65
2021/12/07 04:15:31;;;;;;;2.80;2.35;;;18.80;46.40;;;;;;2261924;63;20313;-66
2021/12/07 04:17:57;;;;;;;2.35;2.05;;;18.80;46.30;;;;;;2261931;63;20250;-66
2021/12/07 04:20:25;;;;;;;2.50;2.15;;;18.80;46.40;;;;;;2261860;63;20325;-66
2021/12/07 04:22:51;;;;;;;2.58;2.38;;;18.80;46.40;;;;;;2261826;63;20156;-65
2021/12/07 04:25:18;;;;;;;3.00;2.50;;;18.80;46.30;;;;;;2261803;63;20240;-65
2021/12/07 04:27:45;;;;;;;3.55;2.38;;;18.80;46.30;;;;;;2261858;63;20164;-65
2021/12/07 04:30:17;;;;;;;2.80;2.40;;;18.90;46.40;;;;;;2261874;63;20381;-66
2021/12/07 04:32:43;;;;;;;2.53;2.20;;;18.80;46.30;;;;;;2261831;63;20168;-66
2021/12/07 04:35:10;;;;;;;2.50;2.22;;;18.80;46.30;;;;;;2261851;63;20307;-66
2021/12/07 04:37:38;;;;;;;2.60;2.40;;;18.80;46.30;;;;;;2261818;63;20235;-65
2021/12/07 04:40:06;;;;;;;2.40;2.20;;;18.80;46.30;;;;;;2261613;63;20171;-65
2021/12/07 04:42:37;;;;;;;2.33;2.13;;;18.80;46.30;;;;;;2261708;63;20322;-66
2021/12/07 04:45:07;;;;;;;2.50;2.25;;;18.80;46.30;;;;;;2261573;63;20186;-66
2021/12/07 04:48:00;;;;;;;3.00;2.25;;;18.80;46.30;;;;;;2261686;63;20354;-66
2021/12/07 04:58:39;;;;;;;2.33;2.13;;;18.80;46.30;;;;;;2263013;63;20309;-66
2021/12/07 05:01:10;;;;;;;2.17;1.98;;;18.80;46.30;;;;;;2262974;63;20170;-66
2021/12/07 05:03:39;;;;;;;2.10;1.90;;;18.80;46.20;;;;;;2262931;63;20175;-66
2021/12/07 05:06:08;;;;;;;2.42;2.10;;;18.80;46.20;;;;;;2262876;63;20172;-66
2021/12/07 05:08:47;;;;;;;2.30;2.10;;;18.80;46.20;;;;;;2262893;63;20213;-66
2021/12/07 05:13:53;;;;;;;2.15;1.95;;;18.70;46.20;;;;;;2262901;63;20658;-66
2021/12/07 05:23:53;;;;;;;2.08;1.88;;;18.70;46.20;;;;;;2262884;63;20675;-66
2021/12/07 05:24:36;;;;;;;2.30;2.05;;;18.70;46.10;;;;;;2262778;63;20168;-65
2021/12/07 05:37:57;;;;;;;2.38;2.17;;;18.90;46.00;;;;;;2262749;63;20277;-65
2021/12/07 05:40:30;;;;;;;2.50;2.00;;;18.90;45.80;;;;;;2262634;63;20286;-65
2021/12/07 05:42:56;;;;;;;1.88;1.67;;;19.00;45.70;;;;;;2262670;63;20176;-65
2021/12/07 05:45:32;;;;;;;2.58;2.17;;;19.10;45.60;;;;;;2262631;63;20164;-65
2021/12/07 05:47:59;;;;;;;2.10;1.90;;;19.20;45.50;;;;;;2262706;63;20603;-65
2021/12/07 05:50:30;;;;;;;2.53;2.03;;;19.30;45.40;;;;;;2262688;63;20554;-65
2021/12/07 05:52:56;;;;;;;1.98;1.77;;;19.40;45.30;;;;;;2262688;63;20353;-65
2021/12/07 05:55:22;;;;;;;1.80;1.52;;;19.50;45.10;;;;;;2262649;63;20229;-65
2021/12/07 05:57:48;;;;;;;2.25;1.95;;;19.70;45.00;;;;;;2262627;63;20214;-66
2021/12/07 06:00:25;;;;;;;1.77;1.50;;;19.80;44.90;;;;;;2262650;63;20764;-66
2021/12/07 06:02:56;;;;;;;1.98;1.65;;;19.90;44.80;;;;;;2262613;63;20192;-66
2021/12/07 06:05:25;;;;;;;1.70;1.60;;;20.00;44.70;;;;;;2262577;63;20173;-65
2021/12/07 06:07:51;;;;;;;1.90;1.67;;;20.10;44.60;;;;;;2262295;63;20326;-65
2021/12/07 06:10:18;;;;;;;1.88;1.40;;;20.20;44.50;;;;;;2262462;63;20152;-65
2021/12/07 06:12:44;;;;;;;1.67;1.35;;;20.20;44.40;;;;;;2262600;63;20279;-64
2021/12/07 06:15:11;;;;;;;1.60;1.50;;;20.30;44.40;;;;;;2262560;63;20173;-65
2021/12/07 06:17:37;;;;;;;1.92;1.70;;;20.30;44.30;;;;;;2262576;63;20180;-64
2021/12/07 06:20:05;;;;;;;1.85;1.63;;;20.30;44.30;;;;;;2262527;63;20390;-65
2021/12/07 06:22:31;;;;;;;1.70;1.60;;;20.30;44.20;;;;;;2262546;63;20238;-64
2021/12/07 06:24:57;;;;;;;1.58;1.45;;;20.30;44.20;;;;;;2262443;63;20892;-64
2021/12/07 06:27:23;;;;;;;1.70;1.60;;;20.30;44.10;;;;;;2262433;63;20289;-64
2021/12/07 06:29:49;;;;;;;1.50;1.40;;;20.30;44.10;;;;;;2262541;63;20238;-64
2021/12/07 06:32:15;;;;;;;1.58;1.48;;;20.30;44.10;;;;;;2262487;63;20178;-65
2021/12/07 06:34:40;;;;;;;1.58;1.40;;;20.30;44.00;;;;;;2262440;63;20174;-65
2021/12/07 06:37:06;;;;;;;2.47;1.38;;;20.40;44.00;;;;;;2262419;63;20538;-65
2021/12/07 06:39:33;;;;;;;1.35;1.20;;;20.40;44.60;;;;;;2262302;63;20210;-65
2021/12/07 06:41:59;;;;;;;1.55;1.33;;;20.40;44.00;;;;;;2262470;63;20159;-65
2021/12/07 06:44:25;;;;;;;1.58;1.23;;;20.40;44.00;;;;;;2262252;63;20287;-65
2021/12/07 06:46:54;;;;;;;1.63;1.50;;;20.40;43.90;;;;;;2262430;63;20695;-64
2021/12/07 06:49:21;;;;;;;1.92;1.40;;;20.40;43.90;;;;;;2262371;63;20168;-65
2021/12/07 06:51:48;;;;;;;2.15;1.45;;;20.40;43.80;;;;;;2262446;63;20668;-65
2021/12/07 06:54:14;;;;;;;1.67;1.40;;;20.40;43.80;;;;;;2262328;63;20175;-65
2021/12/07 06:56:40;;;;;;;1.05;0.95;;;20.40;43.80;;;;;;2262358;63;20278;-65
2021/12/07 06:59:06;;;;;;;1.70;1.27;;;20.40;43.80;;;;;;2262308;63;20395;-64
2021/12/07 07:01:32;;;;;;;1.40;1.25;;;20.50;43.80;;;;;;2262344;63;20871;-65
2021/12/07 07:04:00;;;;;;;1.30;1.20;;;20.50;43.80;;;;;;2262252;63;20168;-65
2021/12/07 07:06:27;;;;;;;1.67;1.35;;;20.50;43.70;;;;;;2262315;63;20178;-64
2021/12/07 07:08:54;;;;;;;2.05;1.30;;;20.40;43.70;;;;;;2262157;63;20179;-65
2021/12/07 07:11:20;;;;;;;1.42;1.33;;;20.50;43.70;;;;;;2262229;63;20209;-65
2021/12/07 07:13:48;;;;;;;1.95;1.75;;;20.50;43.60;;;;;;2262258;63;20171;-65
2021/12/07 07:16:14;;;;;;;1.35;1.25;;;20.50;43.60;;;;;;2262178;63;20193;-65
2021/12/07 07:18:41;;;;;;;1.48;1.10;;;20.50;43.60;;;;;;2262025;63;20180;-65
2021/12/07 07:21:07;;;;;;;1.52;1.10;;;20.50;43.60;;;;;;2261902;63;20176;-64
2021/12/07 07:23:33;;;;;;;1.45;1.35;;;20.50;43.60;;;;;;2262153;63;20164;-65
2021/12/07 07:25:59;;;;;;;1.42;1.25;;;20.60;43.60;;;;;;2262157;63;20195;-65
2021/12/07 07:28:28;;;;;;;1.40;1.00;;;20.60;43.50;;;;;;2262094;63;20354;-65
2021/12/07 07:30:54;;;;;;;1.38;1.02;;;20.60;43.50;;;;;;2262173;63;20164;-65
2021/12/07 07:33:20;;;;;;;1.75;1.27;;;20.60;43.60;;;;;;2262088;63;20719;-65
2021/12/07 07:35:47;;;;;;;1.50;1.15;;;20.60;43.60;;;;;;2262164;63;20742;-65
2021/12/07 07:38:14;;;;;;;2.45;1.40;;;20.60;43.60;;;;;;2262121;63;20193;-66
2021/12/07 07:40:43;;;;;;;1.73;1.30;;;20.50;43.50;;;;;;2261976;63;20197;-65
2021/12/07 07:43:09;;;;;;;1.30;1.05;;;20.50;43.50;;;;;;2262138;63;20197;-65
2021/12/07 07:45:35;;;;;;;1.27;1.17;;;20.50;43.50;;;;;;2261913;63;20164;-65
2021/12/07 07:48:01;;;;;;;1.88;1.50;;;20.40;43.50;;;;;;2262087;63;20182;-65
2021/12/07 07:50:38;;;;;;;1.10;1.00;;;20.40;43.50;;;;;;2262015;63;20320;-64
2021/12/07 07:53:04;;;;;;;1.95;1.33;;;20.50;43.50;;;;;;2262175;63;20237;-65
2021/12/07 07:55:31;;;;;;;3.00;1.10;;;20.40;43.50;;;;;;2262168;63;20176;-65
2021/12/07 07:57:56;;;;;;;2.00;1.15;;;20.40;43.60;;;;;;2262092;63;20325;-65
2021/12/07 08:00:23;;;;;;;2.20;1.35;;;20.40;43.60;;;;;;2262931;63;20311;-65
2021/12/07 08:02:49;;;;;;;1.83;1.40;;;20.50;43.60;;;;;;2261958;63;20214;-65
2021/12/07 08:05:16;;;;;;;5.38;1.30;;;20.50;43.60;;;;;;2261900;63;20299;-65
2021/12/07 08:07:47;;;;;;;1.40;1.13;;;20.40;43.60;;;;;;2261983;63;20186;-65
2021/12/07 08:10:16;;;;;;;3.10;1.20;;;20.50;43.70;;;;;;2261782;63;20287;-65
2021/12/07 08:12:42;;;;;;;2.05;1.40;;;20.50;43.80;;;;;;2261985;63;20641;-65
2021/12/07 08:15:08;;;;;;;1.35;1.10;;;20.60;43.90;;;;;;2261949;63;20188;-65
2021/12/07 08:17:34;;;;;;;2.75;1.20;;;20.50;43.90;;;;;;2261920;63;20638;-65
2021/12/07 08:20:01;;;;;;;1.70;1.23;;;20.50;44.00;;;;;;2261875;63;20626;-65
2021/12/07 08:22:29;;;;;;;2.28;1.25;;;20.50;44.10;;;;;;2261940;63;20273;-65
2021/12/07 08:24:56;;;;;;;2.42;1.42;;;20.50;44.10;;;;;;2261797;63;20176;-65
2021/12/07 08:27:22;;;;;;;1.52;1.40;;;20.40;44.10;;;;;;2261854;63;20306;-64
2021/12/07 08:29:48;;;;;;;3.55;1.73;;;20.40;44.20;;;;;;2261823;63;20302;-65
2021/12/07 08:32:14;;;;;;;1.77;1.50;;;20.40;44.30;;;;;;2262974;63;20172;-65
2021/12/07 08:34:40;;;;;;;1.98;1.30;;;20.30;44.30;;;;;;2263177;63;20160;-65
2021/12/07 08:37:06;;;;;;;3.90;1.30;;;20.30;44.40;;;;;;2263160;63;20152;-64
2021/12/07 08:39:34;;;;;;;2.35;1.40;;;20.20;44.50;;;;;;2257550;63;20233;-64
2021/12/07 08:42:02;;;;;;;3.60;1.20;;;20.20;44.60;;;;;;2261667;63;20415;-64
2021/12/07 08:44:29;;;;;;;2.00;1.10;;;20.20;44.80;;;;;;2269467;63;20171;-63
2021/12/07 08:46:55;;;;;;;1.75;0.90;;;20.10;44.80;;;;;;2271161;63;20167;-65
2021/12/07 08:49:21;;;;;;;4.78;1.23;;;20.10;44.90;;;;;;2271214;63;20185;-65
2021/12/07 08:51:48;;;;;;;2.20;1.08;;;20.10;45.00;;;;;;2271115;63;20223;-64
2021/12/07 08:54:25;;;;;;;2.15;1.60;;;20.00;45.00;;;;;;2271057;63;20175;-64
2021/12/07 08:59:43;;;;;;;4.47;1.10;;;20.00;45.10;;;;;;2271080;63;20188;-64
2021/12/07 09:02:12;;;;;;;2.45;1.00;;;20.00;45.20;;;;;;2271077;63;20276;-64
2021/12/07 09:04:39;;;;;;;3.78;1.35;;;19.90;45.20;;;;;;2270988;63;20203;-64
2021/12/07 09:07:05;;;;;;;2.45;1.20;;;20.00;45.30;;;;;;2271064;63;20402;-64
2021/12/07 09:09:33;;;;;;;2.25;1.33;;;19.90;45.30;;;;;;2270924;63;20216;-65
2021/12/07 09:12:00;;;;;;;1.88;1.20;;;19.80;45.30;;;;;;2271002;63;20156;-66
2021/12/07 09:14:29;;;;;;;1.20;0.85;;;19.90;45.40;;;;;;2271047;63;20168;-64
2021/12/07 09:16:55;;;;;;;2.25;1.23;;;19.80;45.40;;;;;;2271008;63;20687;-65
2021/12/07 09:19:21;;;;;;;4.28;1.05;;;19.80;45.40;;;;;;2271019;63;20736;-64
2021/12/07 09:21:47;;;;;;;1.33;1.10;;;19.80;45.40;;;;;;2270997;63;20260;-64
2021/12/07 09:24:13;;;;;;;1.77;1.05;;;19.80;45.50;;;;;;2270881;63;20313;-64
2021/12/07 09:26:39;;;;;;;2.25;1.23;;;19.70;45.40;;;;;;2270958;63;20162;-64
2021/12/07 09:29:06;;;;;;;2.58;1.10;;;19.80;45.50;;;;;;2270907;63;20293;-65
2021/12/07 09:31:31;;;;;;;1.48;0.80;;;19.70;45.40;;;;;;2270930;63;20312;-65
2021/12/07 09:33:57;;;;;;;2.20;1.27;;;19.70;45.50;;;;;;2270920;63;20144;-64
2021/12/07 09:36:25;;;;;;;1.77;0.90;;;19.70;45.50;;;;;;2270842;63;20730;-64
2021/12/07 09:38:52;;;;;;;2.58;1.40;;;19.70;46.20;;;;;;2270902;63;20181;-64
2021/12/07 09:41:20;;;;;;;2.05;0.98;;;19.70;45.50;;;;;;2270766;63;20175;-65
2021/12/07 09:43:46;;;;;;;3.75;1.05;;;19.60;45.50;;;;;;2270195;63;20185;-64
2021/12/07 09:46:14;;;;;;;2.05;1.40;;;19.60;45.50;;;;;;2270827;63;20196;-64
2021/12/07 09:48:41;;;;;;;2.28;1.20;;;19.60;45.60;;;;;;2270793;63;20649;-64
2021/12/07 09:51:09;;;;;;;2.85;1.05;;;19.60;45.60;;;;;;2270845;63;20312;-64
2021/12/07 09:53:36;;;;;;;3.35;1.30;;;19.60;45.70;;;;;;2270763;63;20179;-64
2021/12/07 09:56:05;;;;;;;3.03;1.33;;;19.50;45.80;;;;;;2263422;63;20167;-64
2021/12/07 09:58:31;;;;;;;2.35;1.05;;;19.60;45.80;;;;;;2270804;63;20746;-64
2021/12/07 10:00:58;;;;;;;4.47;1.23;;;19.50;45.80;;;;;;2270776;63;20187;-65
2021/12/07 10:03:24;;;;;;;4.53;1.27;;;19.50;45.80;;;;;;2270699;63;20276;-64
2021/12/07 10:05:52;;;;;;;1.95;1.30;;;19.60;45.80;;;;;;2270720;63;20669;-64
2021/12/07 10:08:18;;;;;;;1.92;1.10;;;19.60;45.90;;;;;;2270766;63;20164;-64
2021/12/07 10:10:54;;;;;;;2.08;1.13;;;19.60;45.90;;;;;;2270598;63;20241;-64
2021/12/07 10:13:21;;;;;;;2.63;1.00;;;19.60;46.00;;;;;;2270704;63;20179;-64
2021/12/07 10:15:48;;;;;;;1.98;1.05;;;19.60;46.00;;;;;;2270734;63;20415;-65
2021/12/07 10:18:17;;;;;;;3.30;1.10;;;19.50;46.00;;;;;;2270644;63;20737;-67
2021/12/07 10:20:45;;;;;;;1.95;1.20;;;19.50;46.10;;;;;;2270633;63;20729;-64
2021/12/07 10:23:14;;;;;;;4.45;1.30;;;19.50;46.20;;;;;;2270631;63;20694;-65
2021/12/07 10:25:41;;;;;;;2.15;1.33;;;19.50;46.30;;;;;;2270560;63;20204;-64
2021/12/07 10:28:36;;;;;;;4.68;1.63;;;19.50;46.30;;;;;;2270556;63;20578;-64
2021/12/07 10:31:14;;;;;;;2.10;0.90;;;19.50;46.40;;;;;;2270582;63;20210;-65
2021/12/07 10:33:45;;;;;;;3.85;1.10;;;19.40;46.40;;;;;;2270559;63;20167;-65
2021/12/07 10:36:16;;;;;;;2.97;1.27;;;19.40;46.50;;;;;;2270505;63;20185;-64
2021/12/07 10:38:47;;;;;;;4.50;1.20;;;19.40;46.50;;;;;;2270532;63;20283;-65
2021/12/07 10:41:18;;;;;;;4.93;1.58;;;19.40;46.60;;;;;;2270380;63;20217;-65
2021/12/07 10:43:54;;;;;;;2.83;1.27;;;19.30;46.50;;;;;;2270402;63;20238;-65
2021/12/07 10:46:40;;;;;;;3.85;1.30;;;19.30;46.50;;;;;;2262424;63;20189;-65
2021/12/07 10:49:28;;;;;;;2.40;1.20;;;19.30;46.40;;;;;;2262487;63;20190;-65
2021/12/07 10:52:13;;;;;;;3.45;1.10;;;19.30;46.40;;;;;;2262383;63;20171;-65
2021/12/07 10:54:46;;;;;;;3.85;1.25;;;19.30;46.50;;;;;;2262281;63;20313;-65
2021/12/07 10:57:22;;;;;;;3.50;1.00;;;19.30;46.50;;;;;;2262430;63;20180;-65
2021/12/07 10:59:53;;;;;;;3.70;1.70;;;19.30;46.50;;;;;;2262328;63;20192;-64
2021/12/07 11:02:19;;;;;;;3.08;1.02;;;19.30;47.20;;;;;;2262332;63;20687;-65
2021/12/07 11:04:47;;;;;;;4.95;1.30;;;19.30;46.60;;;;;;2262209;63;20175;-65
2021/12/07 11:07:16;;;;;;;3.83;1.25;;;19.40;46.70;;;;;;2262311;63;20195;-65
2021/12/07 11:09:58;;;;;;;1.70;1.00;;;19.40;46.70;;;;;;2262239;63;20254;-65
2021/12/07 11:12:30;;;;;;;3.47;1.20;;;19.30;46.70;;;;;;2262307;63;20662;-66
2021/12/07 11:15:00;;;;;;;1.98;1.38;;;19.30;46.70;;;;;;2262267;63;20694;-64
2021/12/07 11:17:33;;;;;;;3.42;1.30;;;19.30;46.70;;;;;;2262293;63;20579;-65
2021/12/07 11:20:00;;;;;;;2.83;1.00;;;19.30;46.70;;;;;;2262255;63;20695;-64
2021/12/07 11:22:33;;;;;;;2.78;1.13;;;19.30;46.80;;;;;;2262214;63;20574;-65
2021/12/07 11:25:02;;;;;;;4.95;1.45;;;19.30;46.80;;;;;;2262168;63;20168;-65
2021/12/07 11:30:14;;;;;;;4.68;1.33;;;19.30;47.40;;;;;;2262194;63;20160;-64
2021/12/07 11:32:56;;;;;;;2.78;1.13;;;19.30;46.90;;;;;;2262209;63;20258;-64
2021/12/07 11:35:27;;;;;;;3.38;1.33;;;19.30;46.90;;;;;;2262181;63;20308;-64
2021/12/07 11:37:55;;;;;;;8.15;2.05;;;19.30;46.90;;;;;;2262166;63;20635;-65
2021/12/07 11:40:27;;;;;;;6.15;1.90;;;19.30;47.00;;;;;;2262074;63;20191;-65
2021/12/07 11:42:53;;;;;;;4.93;1.70;;;19.30;47.20;;;;;;2262099;63;20245;-64
2021/12/07 11:45:25;;;;;;;5.03;1.63;;;19.30;47.20;;;;;;2266806;63;20301;-65
2021/12/07 11:48:09;;;;;;;6.78;1.77;;;19.30;47.30;;;;;;2270204;63;20432;-65
2021/12/07 11:50:41;;;;;;;4.05;1.80;;;19.40;47.40;;;;;;2270131;63;20163;-65
2021/12/07 11:53:10;;;;;;;5.32;1.58;;;19.40;47.30;;;;;;2270152;63;20151;-64
2021/12/07 11:55:39;;;;;;;3.25;1.33;;;19.40;47.40;;;;;;2270054;63;20244;-64
2021/12/07 11:58:07;;;;;;;4.65;1.38;;;19.40;47.50;;;;;;2270115;63;20232;-65
2021/12/07 12:00:38;;;;;;;5.07;1.35;;;19.40;47.60;;;;;;2270094;63;20211;-65
2021/12/07 12:03:06;;;;;;;4.40;1.30;;;19.50;47.70;;;;;;2270102;63;20769;-64
2021/12/07 12:05:33;;;;;;;3.20;1.40;;;19.40;47.60;;;;;;2269782;63;20358;-65
2021/12/07 12:08:08;;;;;;;5.20;1.50;;;19.50;48.30;;;;;;2270088;63;20675;-65
2021/12/07 12:10:36;;;;;;;6.75;1.30;;;19.40;47.70;;;;;;2269980;63;20223;-65
2021/12/07 12:13:31;;;;;;;5.57;1.52;;;19.40;47.70;;;;;;2270001;63;20195;-65
2021/12/07 12:16:02;;;;;;;4.95;1.10;;;19.50;48.40;;;;;;2270021;63;20155;-64
2021/12/07 12:18:45;;;;;;;4.63;1.50;;;19.40;47.70;;;;;;2270042;63;20334;-65
2021/12/07 12:21:31;;;;;;;3.20;1.40;;;19.40;47.80;;;;;;2269991;63;20218;-65
2021/12/07 12:24:06;;;;;;;3.85;1.33;;;19.40;47.90;;;;;;2269698;63;20185;-64
2021/12/07 12:26:34;;;;;;;3.28;1.48;;;19.40;47.90;;;;;;2269927;63;20214;-65
2021/12/07 12:29:01;;;;;;;5.32;1.30;;;19.40;48.00;;;;;;2270031;63;20187;-64
2021/12/07 12:31:45;;;;;;;4.90;1.30;;;19.40;48.00;;;;;;2269926;63;20992;-66
2021/12/07 12:34:17;;;;;;;5.22;1.38;;;19.40;48.10;;;;;;2269901;63;20187;-65
2021/12/07 12:37:03;;;;;;;4.72;1.20;;;19.40;48.10;;;;;;2269953;63;20203;-65
2021/12/07 12:39:52;;;;;;;4.25;1.45;;;19.40;48.20;;;;;;2269782;63;20156;-65
2021/12/07 12:42:29;;;;;;;3.80;1.30;;;19.40;48.20;;;;;;2269924;63;20253;-65
2021/12/07 12:45:11;;;;;;;6.03;1.50;;;19.40;48.20;;;;;;2269737;63;20703;-65
2021/12/07 12:47:39;;;;;;;5.32;1.30;;;19.40;48.80;;;;;;2269836;63;20171;-66
2021/12/07 12:50:22;;;;;;;5.25;1.33;;;19.40;48.20;;;;;;2269897;63;20160;-65
2021/12/07 12:52:52;;;;;;;4.28;1.38;;;19.40;48.20;;;;;;2269860;63;20176;-65
2021/12/07 12:55:48;;;;;;;6.70;1.65;;;19.40;48.20;;;;;;2269805;63;20191;-65
2021/12/07 12:58:20;;;;;;;4.50;1.23;;;19.40;48.00;;;;;;2269829;63;20626;-65
2021/12/07 13:01:17;;;;;;;2.65;1.40;;;19.30;48.00;;;;;;2269804;63;20332;-65
2021/12/07 13:03:42;;;;;;;;;;;19.30;47.80;;;;;;2270128;63;20171;-65
2021/12/07 13:06:10;;;;;;;;;;;19.30;47.80;;;;;;2270112;63;20023;-65
2021/12/07 13:08:56;;;;;;;5.10;1.30;;;19.30;48.30;;;;;;2269735;63;20140;-65
2021/12/07 13:11:43;;;;;;;4.43;1.13;;;19.30;47.90;;;;;;2269663;63;20341;-66
2021/12/07 13:14:32;;;;;;;3.58;1.00;;;19.30;47.80;;;;;;2269715;63;20199;-65
2021/12/07 13:17:19;;;;;;;6.60;1.40;;;19.30;47.70;;;;;;2269705;63;20217;-65
2021/12/07 13:20:06;;;;;;;4.95;1.10;;;19.30;47.80;;;;;;2271081;63;20204;-65
2021/12/07 13:22:44;;;;;;;2.45;1.00;;;19.30;47.70;;;;;;2271063;63;20175;-65
2021/12/07 13:25:19;;;;;;;4.72;1.67;;;19.30;47.70;;;;;;2270931;63;20160;-65
2021/12/07 13:28:01;;;;;;;2.10;1.05;;;19.40;47.70;;;;;;2271049;63;20840;-65
2021/12/07 13:30:40;;;;;;;5.93;1.40;;;19.40;47.60;;;;;;2270982;63;20223;-65
2021/12/07 13:33:28;;;;;;;5.30;1.17;;;19.40;47.60;;;;;;2270941;63;20189;-65
2021/12/07 13:35:55;;;;;;;2.78;1.10;;;19.40;47.70;;;;;;2270956;63;20275;-65
2021/12/07 13:38:30;;;;;;;3.88;1.17;;;19.40;47.70;;;;;;2270906;63;20163;-66
2021/12/07 13:41:14;;;;;;;3.95;1.27;;;19.40;47.60;;;;;;2270850;63;20262;-64
2021/12/07 13:43:44;;;;;;;4.97;1.15;;;19.40;47.50;;;;;;2270960;63;20368;-65
2021/12/07 13:46:20;;;;;;;5.13;1.63;;;19.40;47.60;;;;;;2270810;63;20185;-64
2021/12/07 13:48:49;;;;;;;4.07;1.25;;;19.40;47.50;;;;;;2270874;63;20171;-65
2021/12/07 13:51:17;;;;;;;3.72;1.10;;;19.40;47.50;;;;;;2270876;63;20188;-65
2021/12/07 13:53:44;;;;;;;6.28;1.17;;;19.40;47.50;;;;;;2270844;63;20711;-65
2021/12/07 13:56:11;;;;;;;2.75;1.10;;;19.40;47.50;;;;;;2270854;63;20167;-64
2021/12/07 13:58:59;;;;;;;4.25;1.20;;;19.40;47.40;;;;;;2270831;63;20284;-64
2021/12/07 14:01:28;;;;;;;4.10;1.17;;;19.40;48.00;;;;;;2270850;63;20230;-65
2021/12/07 14:03:54;;;;;;;10.07;2.53;;;19.30;47.40;;;;;;2270768;63;20218;-64
2021/12/07 14:06:20;;;;;;;7.18;1.25;;;19.40;47.40;;;;;;2270779;63;20159;-64
2021/12/07 14:08:46;;;;;;;3.97;1.30;;;19.40;47.40;;;;;;2270777;63;20170;-64
2021/12/07 14:11:17;;;;;;;2.88;1.08;;;19.40;47.40;;;;;;2270685;63;20288;-64
2021/12/07 14:13:45;;;;;;;5.35;1.50;;;19.40;47.30;;;;;;2262909;63;20603;-65
2021/12/07 14:16:14;;;;;;;2.80;0.88;;;19.30;47.30;;;;;;2262670;63;20187;-64
2021/12/07 14:18:45;;;;;;;3.15;1.15;;;19.30;47.30;;;;;;2262680;63;20584;-64
2021/12/07 14:21:12;;;;;;;3.72;1.00;;;19.40;47.30;;;;;;2262678;63;20209;-64
2021/12/07 14:23:40;;;;;;;3.60;1.10;;;19.30;47.30;;;;;;2262682;63;20172;-64
2021/12/07 14:26:19;;;;;;;4.47;1.30;;;19.30;47.30;;;;;;2262499;63;20658;-64
2021/12/07 14:28:49;;;;;;;3.47;1.05;;;19.30;47.20;;;;;;2262326;63;20183;-64